Cool Springs, Kentucky
Current Conditions -  °F | °C
As of 6:15 AM on Wednesday 28 Jan 2015 (Local Time) from K2I0 Reporting Station
Broken Clouds Broken Clouds  
Wind Chill: 29°   Ceiling: 1800
Heat Index: 29°   Visibility: 7mi
Dew Point: 28°   Wind: 0mph
Humidity: 94%   Direction: NA
Pressure: 30.32"   Gusts: NA
Location:  37.3559°N, 86.8747°W
Report Text: K2I0 281215Z AUTO 00000KT 7SM BKN018 M02/M02 A3032 RMK AO2 T10161025
Loading
Personal Weather Stations






























Interactive Weather Map New forecast layout! Learn more

10-Day Weather Forecast

Advertisements
Track Severe Weather on mobile